Falken — SBCH — position and weather

sailwx.info

Track history (hours):
 
Tides and Currents Weather Stations Pressure Air Temp Water Temp Dewpoint Dewpoint Depression Visibility Wind Speed Wind Dir Waves Ship Positions

Falken (Sweden)

Last reported at 2016-Dec-01 21:09 UTC. Time now 2016-Dec-03 02:30 UTC.
Position N 15°03' W 017°27'.

Length 40 m; draft 4.2 m.

Type: Sailing vessel. MMSI: 265070000.

Date/timePositionNaut miles runAvg speedWind from/ knotsBaromVisibWave heightAir tempDewpointWater temp
2016-Dec-01 21:09N 15°03' W 017°27'3 5.5
2016-Dec-01 20:32N 15°01' W 017°25'5 4.3
2016-Dec-01 19:22N 14°56' W 017°22'6 6.0
2016-Dec-01 18:22N 14°53' W 017°27'7 6.1
2016-Dec-01 17:16N 14°48' W 017°32'10 3.6
2016-Dec-01 14:24N 14°38' W 017°29'7 7.9
2016-Dec-01 13:33N 14°40' W 017°23'3 2.5
2016-Dec-01 12:31N 14°41' W 017°25'0 0.0
2016-Dec-01 11:28N 14°41' W 017°25'0 0.0
2016-Dec-01 10:31N 14°41' W 017°25'1 0.6
2016-Dec-01 09:28N 14°41' W 017°26'0 0.0
2016-Dec-01 08:31N 14°41' W 017°26'0 0.0
2016-Dec-01 07:31N 14°41' W 017°26'0 0.0
2016-Dec-01 06:31N 14°41' W 017°26'0 0.0
2016-Dec-01 05:31N 14°41' W 017°26'0 0.0
2016-Dec-01 04:31N 14°41' W 017°26'0 0.0
2016-Dec-01 03:31N 14°41' W 017°26'0 0.0
2016-Dec-01 02:22N 14°41' W 017°26'0 0.0
2016-Dec-01 01:28N 14°41' W 017°26'0 0.0
2016-Dec-01 00:28N 14°41' W 017°26'0 0.0
2016-Nov-30 23:22N 14°41' W 017°26'0 0.0
2016-Nov-30 22:22N 14°41' W 017°26'0 0.0
2016-Nov-30 21:31N 14°41' W 017°26'0 0.0
2016-Nov-30 20:31N 14°41' W 017°26'0 0.0
2016-Nov-30 19:31N 14°41' W 017°26'0 0.0
2016-Nov-30 18:31N 14°41' W 017°26'0 0.0
2016-Nov-30 17:31N 14°41' W 017°26'0 0.0
2016-Nov-30 16:31N 14°41' W 017°26'0 0.0
2016-Nov-30 15:28N 14°41' W 017°26'0 0.0
2016-Nov-30 14:31N 14°41' W 017°26'0 0.0
2016-Nov-30 13:31N 14°41' W 017°26'0 0.0
2016-Nov-30 12:28N 14°41' W 017°26'0 0.0
2016-Nov-30 11:22N 14°41' W 017°26'0 0.0
2016-Nov-30 10:31N 14°41' W 017°26'0 0.0
2016-Nov-30 09:31N 14°41' W 017°26'0 0.0
2016-Nov-30 08:28N 14°41' W 017°26'0 0.0
2016-Nov-30 07:28N 14°41' W 017°26'0 0.0
2016-Nov-30 06:25N 14°41' W 017°26'0 0.0
2016-Nov-30 05:31N 14°41' W 017°26'0 0.0
2016-Nov-30 04:31N 14°41' W 017°26'0 0.0
2016-Nov-30 03:31N 14°41' W 017°26'0 0.0
2016-Nov-30 02:31N 14°41' W 017°26'0 0.0
2016-Nov-30 01:31N 14°41' W 017°26'0 0.0
2016-Nov-30 00:31N 14°41' W 017°26'0 0.0
2016-Nov-29 23:31N 14°41' W 017°26'0 0.0
2016-Nov-29 22:25N 14°41' W 017°26'0 0.0
2016-Nov-29 21:25N 14°41' W 017°26'0 0.0
2016-Nov-29 20:28N 14°41' W 017°26'0 0.0
2016-Nov-29 19:25N 14°41' W 017°26'0 0.0
2016-Nov-29 18:28N 14°41' W 017°26'0 0.0
2016-Nov-29 17:28N 14°41' W 017°26'0 0.0
2016-Nov-29 16:28N 14°41' W 017°26'0 0.0
2016-Nov-29 15:31N 14°41' W 017°26'0 0.0
2016-Nov-29 14:31N 14°41' W 017°26'0 0.0
2016-Nov-29 13:31N 14°41' W 017°26'0 0.0
2016-Nov-29 12:31N 14°41' W 017°26'0 0.0
2016-Nov-29 11:31N 14°41' W 017°26'0 0.0
2016-Nov-29 10:31N 14°41' W 017°26'1 0.9
2016-Nov-29 09:34N 14°41' W 017°25'1 0.8
2016-Nov-29 08:31N 14°41' W 017°24'0 0.0
2016-Nov-29 07:31N 14°41' W 017°24'0 0.0
2016-Nov-29 06:31N 14°41' W 017°24'0 0.0
2016-Nov-29 05:31N 14°41' W 017°24'0 0.0
2016-Nov-29 04:31N 14°41' W 017°24'0 0.0
2016-Nov-29 03:25N 14°41' W 017°24'0 0.0
2016-Nov-29 02:31N 14°41' W 017°24'0 0.0
2016-Nov-29 01:31N 14°41' W 017°24'0 0.0
2016-Nov-29 00:31N 14°41' W 017°24'0 0.0
2016-Nov-28 23:31N 14°41' W 017°24'0 0.0
2016-Nov-28 22:31N 14°41' W 017°24'0 0.0
2016-Nov-28 21:31N 14°41' W 017°24'0 0.0
2016-Nov-28 20:31N 14°41' W 017°24'0 0.0
2016-Nov-28 19:31N 14°41' W 017°24'0 0.0
2016-Nov-28 18:31N 14°41' W 017°24'0 0.0
2016-Nov-28 17:31N 14°41' W 017°24'0 0.0
2016-Nov-28 16:31N 14°41' W 017°24'0 0.0
2016-Nov-28 15:31N 14°41' W 017°24'0 0.0
2016-Nov-28 14:31N 14°41' W 017°24'0 0.0
2016-Nov-28 13:31N 14°41' W 017°24'0 0.0
2016-Nov-28 12:31N 14°41' W 017°24'0 0.0
2016-Nov-28 11:31N 14°41' W 017°24'0 0.0
2016-Nov-28 10:28N 14°41' W 017°24'0 0.0
2016-Nov-28 09:31N 14°41' W 017°24'0 0.0
2016-Nov-28 08:28N 14°41' W 017°24'0 0.4
2016-Nov-28 07:33N 14°41' W 017°24'1 1.3
2016-Nov-28 06:33N 14°40' W 017°23'  
Track history (hours):
 
Tides and Currents Weather Stations Pressure Air Temp Water Temp Dewpoint Dewpoint Depression Visibility Wind Speed Wind Dir Waves Ship Positions

Falken (Sweden)

Last reported at 2016-Dec-01 21:09 UTC. Time now 2016-Dec-03 02:30 UTC.
Position N 15°03' W 017°27'.

Length 40 m; draft 4.2 m.

Type: Sailing vessel. MMSI: 265070000.

Date/timePositionNaut miles runAvg speedWind from/ knotsBaromVisibWave heightAir tempDewpointWater temp
2016-Dec-01 21:09N 15°03' W 017°27'3 5.5
2016-Dec-01 20:32N 15°01' W 017°25'5 4.3
2016-Dec-01 19:22N 14°56' W 017°22'6 6.0
2016-Dec-01 18:22N 14°53' W 017°27'7 6.1
2016-Dec-01 17:16N 14°48' W 017°32'10 3.6
2016-Dec-01 14:24N 14°38' W 017°29'7 7.9
2016-Dec-01 13:33N 14°40' W 017°23'3 2.5
2016-Dec-01 12:31N 14°41' W 017°25'0 0.0
2016-Dec-01 11:28N 14°41' W 017°25'0 0.0
2016-Dec-01 10:31N 14°41' W 017°25'1 0.6
2016-Dec-01 09:28N 14°41' W 017°26'0 0.0
2016-Dec-01 08:31N 14°41' W 017°26'0 0.0
2016-Dec-01 07:31N 14°41' W 017°26'0 0.0
2016-Dec-01 06:31N 14°41' W 017°26'0 0.0
2016-Dec-01 05:31N 14°41' W 017°26'0 0.0
2016-Dec-01 04:31N 14°41' W 017°26'0 0.0
2016-Dec-01 03:31N 14°41' W 017°26'0 0.0
2016-Dec-01 02:22N 14°41' W 017°26'0 0.0
2016-Dec-01 01:28N 14°41' W 017°26'0 0.0
2016-Dec-01 00:28N 14°41' W 017°26'0 0.0
2016-Nov-30 23:22N 14°41' W 017°26'0 0.0
2016-Nov-30 22:22N 14°41' W 017°26'0 0.0
2016-Nov-30 21:31N 14°41' W 017°26'0 0.0
2016-Nov-30 20:31N 14°41' W 017°26'0 0.0
2016-Nov-30 19:31N 14°41' W 017°26'0 0.0
2016-Nov-30 18:31N 14°41' W 017°26'0 0.0
2016-Nov-30 17:31N 14°41' W 017°26'0 0.0
2016-Nov-30 16:31N 14°41' W 017°26'0 0.0
2016-Nov-30 15:28N 14°41' W 017°26'0 0.0
2016-Nov-30 14:31N 14°41' W 017°26'0 0.0
2016-Nov-30 13:31N 14°41' W 017°26'0 0.0
2016-Nov-30 12:28N 14°41' W 017°26'0 0.0
2016-Nov-30 11:22N 14°41' W 017°26'0 0.0
2016-Nov-30 10:31N 14°41' W 017°26'0 0.0
2016-Nov-30 09:31N 14°41' W 017°26'0 0.0
2016-Nov-30 08:28N 14°41' W 017°26'0 0.0
2016-Nov-30 07:28N 14°41' W 017°26'0 0.0
2016-Nov-30 06:25N 14°41' W 017°26'0 0.0
2016-Nov-30 05:31N 14°41' W 017°26'0 0.0
2016-Nov-30 04:31N 14°41' W 017°26'0 0.0
2016-Nov-30 03:31N 14°41' W 017°26'0 0.0
2016-Nov-30 02:31N 14°41' W 017°26'0 0.0
2016-Nov-30 01:31N 14°41' W 017°26'0 0.0
2016-Nov-30 00:31N 14°41' W 017°26'0 0.0
2016-Nov-29 23:31N 14°41' W 017°26'0 0.0
2016-Nov-29 22:25N 14°41' W 017°26'0 0.0
2016-Nov-29 21:25N 14°41' W 017°26'0 0.0
2016-Nov-29 20:28N 14°41' W 017°26'0 0.0
2016-Nov-29 19:25N 14°41' W 017°26'0 0.0
2016-Nov-29 18:28N 14°41' W 017°26'0 0.0
2016-Nov-29 17:28N 14°41' W 017°26'0 0.0
2016-Nov-29 16:28N 14°41' W 017°26'0 0.0
2016-Nov-29 15:31N 14°41' W 017°26'0 0.0
2016-Nov-29 14:31N 14°41' W 017°26'0 0.0
2016-Nov-29 13:31N 14°41' W 017°26'0 0.0
2016-Nov-29 12:31N 14°41' W 017°26'0 0.0
2016-Nov-29 11:31N 14°41' W 017°26'0 0.0
2016-Nov-29 10:31N 14°41' W 017°26'1 0.9
2016-Nov-29 09:34N 14°41' W 017°25'1 0.8
2016-Nov-29 08:31N 14°41' W 017°24'0 0.0
2016-Nov-29 07:31N 14°41' W 017°24'0 0.0
2016-Nov-29 06:31N 14°41' W 017°24'0 0.0
2016-Nov-29 05:31N 14°41' W 017°24'0 0.0
2016-Nov-29 04:31N 14°41' W 017°24'0 0.0
2016-Nov-29 03:25N 14°41' W 017°24'0 0.0
2016-Nov-29 02:31N 14°41' W 017°24'0 0.0
2016-Nov-29 01:31N 14°41' W 017°24'0 0.0
2016-Nov-29 00:31N 14°41' W 017°24'0 0.0
2016-Nov-28 23:31N 14°41' W 017°24'0 0.0
2016-Nov-28 22:31N 14°41' W 017°24'0 0.0
2016-Nov-28 21:31N 14°41' W 017°24'0 0.0
2016-Nov-28 20:31N 14°41' W 017°24'0 0.0
2016-Nov-28 19:31N 14°41' W 017°24'0 0.0
2016-Nov-28 18:31N 14°41' W 017°24'0 0.0
2016-Nov-28 17:31N 14°41' W 017°24'0 0.0
2016-Nov-28 16:31N 14°41' W 017°24'0 0.0
2016-Nov-28 15:31N 14°41' W 017°24'0 0.0
2016-Nov-28 14:31N 14°41' W 017°24'0 0.0
2016-Nov-28 13:31N 14°41' W 017°24'0 0.0
2016-Nov-28 12:31N 14°41' W 017°24'0 0.0
2016-Nov-28 11:31N 14°41' W 017°24'0 0.0
2016-Nov-28 10:28N 14°41' W 017°24'0 0.0
2016-Nov-28 09:31N 14°41' W 017°24'0 0.0
2016-Nov-28 08:28N 14°41' W 017°24'0 0.4
2016-Nov-28 07:33N 14°41' W 017°24'1 1.3
2016-Nov-28 06:33N 14°40' W 017°23'  

Dump ship's entire track history